x

Shumagin Islands - 85nm South Of Sand Point, Ak (46075) Wave Buoy

12:50 - Wed 24th Sep 2014 All times are UTC.

  • Sig Wave height 3.9ft
  • Peak Period 11s
  • Average Period 6s
  • Wind
    13mph
  • Sea Temp 54°f
  • Ar Temp 51°f
  • Sea Pressure 1015.7mb

More Historic Weather Station data

Upgrade to MSW Pro to gain access to the past 30 days of data for over 8000 Wavebouys and Weather Stations around the globe.

Join Pro

Comparision Forecast

View Surf forecast
   
Qua 09/24 12:50 4ft 11s 6s 13
mph
1015.7mb 54f 51f
Ter 09/23 11:50 4ft 12s 6s 11 16 mph 1015.8mb 53f 51f
10:50 3.5ft 8s 6s 11 13 mph 1015.8mb 54f 51f
9:50 4ft 10s 6s 11 13 mph 1015.7mb 54f 51f
8:50 4.5ft 13s 6s 11 16 mph 1015.6mb 52f 51f
7:50 4.5ft 11s 6s 9 11 mph 1015.4mb 52f 51f
6:50 4.5ft 13s 6s 11 13 mph 1015.2mb 52f 51f
5:50 5ft 13s 6s 11
mph
1014.8mb 52f 51f
4:50 4.5ft 13s 6s 11 13 mph 1014.4mb 52f 50f
3:50 5ft 13s 6s 11 13 mph 1014.4mb 52f 51f
2:50 5ft 14s 6s 11 13 mph 1014.3mb 52f 51f
1:50 5ft 14s 7s 9 11 mph 1014.2mb 52f 51f
12:50 5ft 14s 6s 7 9 mph 1013.8mb 52f 51f
11:50 4.5ft 14s 6s 11 13 mph 1013.6mb 52f 51f
10:50 4.5ft 15s 5s 13 16 mph 1013.2mb 52f 51f
9:50 4.5ft 14s 6s 13 16 mph 1012.9mb 52f 51f
8:50 4ft 12s 5s 13 16 mph 1012.6mb 52f 51f
7:50 4.5ft 12s 6s 11 13 mph 1012.5mb 51f 52f
6:50 4.5ft 11s 5s 13 16 mph 1012.1mb 52f 52f
5:50 3.5ft 8s 5s 16 18 mph 1011.9mb 52f 51f
4:50 5ft 13s 6s 16 18 mph 1011.4mb 52f 52f
3:50 5ft 12s 5s 18 20 mph 1010.8mb 52f 52f
2:50 5ft 11s 5s 16 18 mph 1010.5mb 52f 52f
1:50 5ft 12s 6s 16 18 mph 1010.2mb 52f 51f
12:50 5ft 12s 6s 11 16 mph 1009.9mb 52f 51f
Seg 09/22 11:50 4.5ft 12s 5s 11 13 mph 1009.7mb 52f 51f
10:50 4.5ft 12s 5s 11 13 mph 1009.5mb 53f 51f
9:50 4.5ft 13s 5s 11 16 mph 1009.2mb 53f 51f
8:50 4.5ft 13s 5s 13 16 mph 1008.9mb 52f 51f
7:50 4.5ft 6s 5s 16 18 mph 1008.6mb 52f 51f
6:50 4.5ft 6s 5s 16 18 mph 1008mb 52f 51f
5:50 5ft 13s 5s 18 20 mph 1007.5mb 52f 50f
4:50 4.5ft 5s 5s 20 22 mph 1007mb 52f 51f
3:50 4.5ft 5s 5s 20 22 mph 1006.5mb 52f 51f
2:50 4.5ft 14s 5s 18 20 mph 1006.3mb 51f 51f
1:50 4ft 14s 5s 16 18 mph 1006.1mb 51f 52f
12:50 3.5ft 15s 5s 13 18 mph 1005.9mb 51f 51f
11:50 3.5ft 14s 5s 11 16 mph 1005.8mb 52f 52f
10:50 2.5ft 12s 4s 9 11 mph 1005.7mb 51f 52f
9:50 3.5ft 15s 5s 11 13 mph 1005.5mb 51f 52f
8:50 3.5ft 6s 5s 11 13 mph 1005.3mb 51f 52f
7:50 3.5ft 15s 4s 11 13 mph 1005.2mb 51f 52f
6:50 3.5ft 12s 4s 13 18 mph 1005.2mb 51f 52f
5:50 3.5ft 15s 5s 11 13 mph 1005mb 51f 52f
4:50 3.5ft 5s 5s 13 16 mph 1004.9mb 51f 51f
3:50 3ft 5s 4s 13 16 mph 1004.7mb 52f 52f
2:50 3.5ft 15s 5s 13 16 mph 1004.8mb 52f 51f
1:50 3.5ft 4s 4s 11 13 mph 1004.9mb 52f 51f
12:50 3.5ft 5s 4s 13 16 mph 1005.1mb 52f 51f
Dom 09/21 11:50 3ft 5s 4s 16 18 mph 1005.3mb 52f 51f
10:50 3ft 5s 4s 11 16 mph 1005.6mb 52f 51f
9:50 3.5ft 5s 4s 16 18 mph 1005.8mb 52f 50f
8:50 3.5ft 5s 4s 16 18 mph 1005.9mb 52f 51f
7:50 3.5ft 5s 4s 16 18 mph 1006mb 52f 51f
6:50 3.5ft 6s 4s 16 18 mph 1006.1mb 52f 51f
5:50 4ft 5s 4s 13 16 mph 1006.1mb 52f 51f
4:50 4.5ft 5s 4s 16 18 mph 1005.8mb 52f 51f
3:50 4.5ft 6s 4s 18 22 mph 1005.7mb 52f 51f
2:50 4.5ft 5s 5s 22 25 mph 1005.9mb 52f 49f
1:50 4.5ft 6s 5s 16 20 mph 1006.1mb 52f 51f
12:50 5ft 6s 5s 16 20 mph 1006.2mb 52f 50f
11:50 5ft 6s 5s 18 22 mph 1006.1mb 52f 51f
10:50 4.5ft 6s 5s 18 20 mph 1006.3mb 52f 51f
9:50 4ft 5s 4s 16 18 mph 1006.4mb 52f 51f
8:50 4ft 5s 5s 16 20 mph 1006.6mb 53f 52f
7:50 4.5ft 6s 5s 16 18 mph 1006.5mb 53f 52f
6:50 4.5ft 6s 5s 13 18 mph 1006.5mb 53f 52f
5:50 5ft 6s 5s 16 18 mph 1006.5mb 53f 52f
4:50 5.5ft 6s 5s 16 18 mph 1006.2mb 53f 52f
3:50 6ft 6s 5s 16 20 mph 1005.8mb 53f 53f
2:50 5ft 6s 5s 20 22 mph 1005.7mb 54f 53f
1:50 5ft 6s 5s 20 22 mph 1005.6mb 54f 53f
12:50 5.5ft 6s 5s 18 20 mph 1005.6mb 54f 53f
Sáb 09/20 11:50 5ft 6s 5s 18 22 mph 1005.7mb 54f 53f
10:50 5ft 6s 5s 18 22 mph 1005.7mb 54f 53f
9:50 5ft 6s 5s 18 22 mph 1005.7mb 54f 52f
8:50 5.5ft 7s 5s 18 20 mph 1005.6mb 54f 52f
7:50 5ft 7s 5s 18 20 mph 1005.5mb 54f 52f
6:50 5.5ft 6s 5s 22 25 mph 1005.3mb 54f 51f
5:50 6ft 7s 5s 18 22 mph 1005.2mb 54f 51f
4:50 6ft 8s 5s 20 25 mph 1005.2mb 54f 51f
3:50 6ft 8s 5s 18 22 mph 1005.1mb 54f 51f
2:50 6ft 6s 5s 16 20 mph 1005.1mb 54f 51f
1:50 7ft 8s 5s 18 25 mph 1004.8mb 54f 51f
12:50 7ft 7s 5s 20 22 mph 1004.8mb 54f 51f
11:50 7ft 8s 6s 20 25 mph 1004.9mb 54f 51f
10:50  -   -   -  20
mph
- - 51f
9:50 7ft 7s 6s 18 22 mph 1004.8mb 54f 51f
8:50 7ft 6s 6s 18 22 mph 1004.7mb 54f 52f
7:50 7ft 7s 6s 20 22 mph 1004.5mb 54f 52f
6:50 7ft 7s 6s 20 25 mph 1004.2mb 54f 52f
5:50 7ft 7s 6s 20 22 mph 1003.9mb 54f 52f
4:50 7ft 8s 6s 18 22 mph 1003.5mb 54f 53f
3:50 7.5ft 7s 6s 20 25 mph 1002.7mb 54f 53f
2:50 8ft 8s 6s 20 25 mph 1002.1mb 54f 53f